Time;durP1;ratioP1;P1;durP2;ratioP2;P2;SDS_P1;SDS_P2;PMS_P1;PMS_P2;Temp;Humidity;BMP_temperature;BMP_pressure;BME280_temperature;BME280_humidity;BME280_pressure;Samples;Min_cycle;Max_cycle;Signal;HPM_P1;HPM_P2
2022/08/24 00:02:09;;;;;;;4.07;2.03;;;23.90;99.90;;;;;;6252322;23;20171;-85
2022/08/24 00:04:35;;;;;;;3.90;2.33;;;23.80;99.90;;;;;;6254449;23;20410;-86
2022/08/24 00:07:02;;;;;;;2.80;2.53;;;23.80;99.90;;;;;;6225063;23;20187;-86
2022/08/24 00:09:29;;;;;;;6.50;2.37;;;23.80;99.90;;;;;;6226992;23;20438;-85
2022/08/24 00:11:55;;;;;;;5.63;2.10;;;23.80;99.90;;;;;;6253278;23;20402;-85
2022/08/24 00:14:20;;;;;;;3.30;2.07;;;23.70;99.90;;;;;;6253269;23;20489;-86
2022/08/24 00:16:46;;;;;;;6.50;2.53;;;23.70;99.90;;;;;;6252889;23;20181;-85
2022/08/24 00:19:12;;;;;;;5.43;2.60;;;23.60;99.90;;;;;;6253004;22;20244;-86
2022/08/24 00:21:37;;;;;;;8.37;3.40;;;23.60;99.90;;;;;;6226171;23;20216;-85
2022/08/24 00:24:04;;;;;;;4.70;2.23;;;23.60;99.90;;;;;;6225959;23;20692;-87
2022/08/24 00:26:29;;;;;;;3.33;2.50;;;23.60;99.90;;;;;;6226294;23;20540;-87
2022/08/24 00:28:56;;;;;;;7.40;2.67;;;23.50;99.90;;;;;;6252917;22;20399;-85
2022/08/24 00:31:22;;;;;;;5.13;2.90;;;23.50;99.90;;;;;;6225955;23;20223;-85
2022/08/24 00:33:47;;;;;;;4.07;2.90;;;23.40;99.90;;;;;;6220484;22;21012;-85
2022/08/24 00:36:13;;;;;;;7.10;3.40;;;23.30;99.90;;;;;;6246116;23;20209;-84
2022/08/24 00:38:39;;;;;;;4.00;2.80;;;23.20;99.90;;;;;;6247926;23;20156;-84
2022/08/24 00:41:04;;;;;;;4.63;3.23;;;23.20;99.90;;;;;;6248118;23;20167;-83
2022/08/24 00:43:31;;;;;;;7.23;2.77;;;23.20;99.90;;;;;;6247535;22;20621;-84
2022/08/24 00:46:16;;;;;;;4.80;3.40;;;23.20;99.90;;;;;;6221457;23;20164;-84
2022/08/24 00:48:46;;;;;;;9.00;3.00;;;23.20;99.90;;;;;;6220706;23;20424;-84
2022/08/24 00:51:23;;;;;;;6.13;3.30;;;23.10;99.90;;;;;;6220112;23;20448;-84
2022/08/24 00:53:54;;;;;;;10.63;3.80;;;23.10;99.90;;;;;;6247058;22;20538;-84
2022/08/24 00:56:28;;;;;;;7.83;3.43;;;23.10;99.90;;;;;;6246164;23;20365;-84
2022/08/24 00:58:59;;;;;;;4.07;3.00;;;23.10;99.90;;;;;;6247165;23;20363;-84
2022/08/24 01:01:27;;;;;;;5.33;3.00;;;23.10;99.90;;;;;;6218836;23;20378;-84
2022/08/24 01:03:53;;;;;;;4.70;3.37;;;23.10;99.90;;;;;;6247705;22;20903;-84
2022/08/24 01:06:19;;;;;;;6.07;2.90;;;23.00;99.90;;;;;;6246240;23;20392;-84
2022/08/24 01:08:45;;;;;;;7.10;3.20;;;22.90;99.90;;;;;;6247765;23;20422;-85
2022/08/24 01:11:14;;;;;;;3.97;2.70;;;22.80;99.90;;;;;;6220725;23;20163;-84
2022/08/24 01:13:42;;;;;;;11.77;2.90;;;22.80;99.90;;;;;;6246795;22;20193;-84
2022/08/24 01:16:08;;;;;;;3.63;3.00;;;22.90;99.90;;;;;;6220949;23;20414;-84
2022/08/24 01:18:50;;;;;;;5.30;3.60;;;22.80;99.90;;;;;;6248222;23;20387;-85
2022/08/24 01:21:59;;;;;;;4.13;3.07;;;22.80;99.90;;;;;;6247199;23;20366;-84
2022/08/24 01:24:24;;;;;;;10.63;4.27;;;22.80;99.90;;;;;;6096012;23;20473;-84
2022/08/24 01:26:50;;;;;;;7.30;3.67;;;22.80;99.90;;;;;;6214782;23;20427;-84
2022/08/24 01:29:20;;;;;;;6.50;3.50;;;22.70;99.90;;;;;;6221714;23;20155;-84
2022/08/24 01:31:45;;;;;;;4.60;3.33;;;22.70;99.90;;;;;;6249575;23;20152;-84
2022/08/24 01:34:12;;;;;;;9.60;4.00;;;22.70;99.90;;;;;;6221763;23;20452;-84
2022/08/24 01:36:44;;;;;;;7.00;3.07;;;22.70;99.90;;;;;;6248159;23;20155;-84
2022/08/24 01:39:15;;;;;;;4.77;3.03;;;22.60;99.90;;;;;;6225317;23;20382;-84
2022/08/24 01:41:41;;;;;;;5.40;3.50;;;22.60;99.90;;;;;;6260875;23;20754;-84
2022/08/24 01:44:06;;;;;;;3.53;2.90;;;22.50;99.90;;;;;;6246045;22;20414;-84
2022/08/24 01:46:32;;;;;;;6.27;3.00;;;22.50;99.90;;;;;;6245961;23;20401;-84
2022/08/24 01:48:58;;;;;;;3.70;2.70;;;22.40;99.90;;;;;;6247141;23;20144;-85
2022/08/24 01:51:28;;;;;;;7.63;2.97;;;22.40;99.90;;;;;;6246237;23;20373;-84
2022/08/24 01:53:54;;;;;;;4.77;2.77;;;22.40;99.90;;;;;;6247644;22;20170;-84
2022/08/24 01:56:20;;;;;;;4.27;2.80;;;22.40;99.90;;;;;;6219038;23;20399;-84
2022/08/24 01:58:47;;;;;;;10.80;2.60;;;22.30;99.90;;;;;;6246744;23;20151;-84
2022/08/24 02:01:16;;;;;;;5.60;3.03;;;22.30;99.90;;;;;;6245942;23;20657;-84
2022/08/24 02:03:42;;;;;;;3.73;2.73;;;22.30;99.90;;;;;;6247276;22;20901;-84
2022/08/24 02:06:08;;;;;;;3.33;3.03;;;22.20;99.90;;;;;;6246165;23;20378;-84
2022/08/24 02:08:35;;;;;;;4.43;3.10;;;22.20;99.90;;;;;;6247655;23;20410;-84
2022/08/24 02:11:10;;;;;;;3.90;2.83;;;22.20;99.90;;;;;;6219488;23;20187;-84
2022/08/24 02:13:41;;;;;;;6.77;4.13;;;22.20;1.00;;;;;;6246797;22;20393;-83
2022/08/24 02:16:06;;;;;;;5.40;4.00;;;22.10;1.00;;;;;;6247663;23;20365;-84
2022/08/24 02:18:33;;;;;;;6.23;3.73;;;22.10;1.00;;;;;;6246618;23;20452;-85
2022/08/24 02:20:59;;;;;;;4.00;3.50;;;22.10;1.00;;;;;;6247851;23;20161;-84
2022/08/24 02:23:27;;;;;;;5.20;3.23;;;22.10;1.00;;;;;;6246298;22;20410;-84
2022/08/24 02:25:53;;;;;;;15.37;3.73;;;22.10;1.00;;;;;;6246973;23;20842;-84
2022/08/24 02:28:19;;;;;;;4.70;2.83;;;22.10;1.00;;;;;;6245966;23;20750;-84
2022/08/24 02:30:45;;;;;;;8.60;3.07;;;22.10;1.00;;;;;;6247703;23;20379;-84
2022/08/24 02:33:11;;;;;;;3.23;2.93;;;22.10;1.00;;;;;;6246430;22;20417;-83
2022/08/24 02:35:38;;;;;;;6.20;3.30;;;22.10;1.00;;;;;;6220338;23;20433;-84
2022/08/24 02:38:04;;;;;;;4.60;3.30;;;22.10;1.00;;;;;;6247534;23;20383;-84
2022/08/24 02:40:31;;;;;;;5.53;2.60;;;22.10;1.00;;;;;;6221265;23;20464;-84
2022/08/24 02:42:57;;;;;;;4.83;3.10;;;22.10;1.00;;;;;;6247699;22;20867;-84
2022/08/24 02:45:22;;;;;;;10.50;2.70;;;22.00;1.00;;;;;;6246917;23;20390;-84
2022/08/24 02:47:51;;;;;;;3.97;3.50;;;22.00;1.00;;;;;;6247377;23;20499;-84
2022/08/24 02:50:17;;;;;;;5.70;2.90;;;21.90;1.00;;;;;;6246240;23;20145;-85
2022/08/24 02:52:43;;;;;;;6.47;3.00;;;21.90;1.00;;;;;;6247737;22;20396;-84
2022/08/24 02:55:13;;;;;;;7.10;2.87;;;21.90;1.00;;;;;;6246961;23;20390;-85
2022/08/24 02:57:39;;;;;;;8.37;3.10;;;21.80;1.00;;;;;;6246696;23;20157;-84
2022/08/24 03:00:08;;;;;;;3.90;2.47;;;21.80;1.00;;;;;;6247520;23;20373;-84
2022/08/24 03:02:36;;;;;;;6.30;3.17;;;21.80;1.00;;;;;;6247119;22;20197;-84
2022/08/24 03:05:03;;;;;;;3.70;2.90;;;21.80;1.00;;;;;;6247671;23;20418;-84
2022/08/24 03:07:28;;;;;;;3.50;3.10;;;21.80;1.00;;;;;;6246690;23;20445;-84
2022/08/24 03:09:54;;;;;;;2.77;2.57;;;21.80;1.00;;;;;;6247911;23;20725;-84
2022/08/24 03:12:20;;;;;;;5.67;3.10;;;21.70;1.00;;;;;;6247448;22;20174;-84
2022/08/24 03:14:45;;;;;;;4.10;3.30;;;21.60;1.00;;;;;;6246530;23;20160;-83
2022/08/24 03:17:11;;;;;;;4.80;3.33;;;21.60;1.00;;;;;;6247673;23;20503;-83
2022/08/24 03:19:37;;;;;;;5.20;3.43;;;21.60;1.00;;;;;;6248541;23;20598;-85
2022/08/24 03:22:03;;;;;;;4.57;3.67;;;21.60;1.00;;;;;;6248325;22;20161;-85
2022/08/24 03:24:28;;;;;;;5.73;3.70;;;21.50;1.00;;;;;;6247276;23;20164;-85
2022/08/24 03:26:54;;;;;;;8.73;4.17;;;21.50;1.00;;;;;;6247117;23;20901;-85
2022/08/24 03:29:20;;;;;;;6.70;4.40;;;21.40;12.90;;;;;;6221802;23;20159;-84
2022/08/24 03:31:46;;;;;;;5.20;4.00;;;21.50;30.30;;;;;;6248154;23;20145;-85
2022/08/24 03:34:12;;;;;;;6.70;3.13;;;21.40;55.00;;;;;;6248230;22;20184;-84
2022/08/24 03:36:39;;;;;;;5.67;3.60;;;21.40;61.90;;;;;;6246972;23;20156;-85
2022/08/24 03:39:06;;;;;;;7.63;4.70;;;21.40;99.90;;;;;;6246618;23;20383;-85
2022/08/24 03:41:31;;;;;;;6.80;3.43;;;21.30;99.90;;;;;;6246369;23;20372;-86
2022/08/24 03:43:57;;;;;;;6.53;5.00;;;21.30;99.90;;;;;;6245489;22;20436;-84
2022/08/24 03:46:27;;;;;;;6.90;3.67;;;21.30;99.90;;;;;;6246878;23;20148;-84
2022/08/24 03:48:57;;;;;;;5.40;4.03;;;21.20;99.90;;;;;;6220867;23;20149;-85
2022/08/24 03:51:25;;;;;;;6.40;5.03;;;21.20;99.90;;;;;;6220257;23;20734;-85
2022/08/24 03:53:52;;;;;;;4.20;3.67;;;21.20;99.90;;;;;;6248548;22;20392;-85
2022/08/24 03:56:17;;;;;;;7.20;4.10;;;21.10;99.90;;;;;;6245035;23;20377;-85
2022/08/24 03:58:44;;;;;;;6.83;3.90;;;21.10;1.00;;;;;;6246302;23;20367;-85
2022/08/24 04:01:10;;;;;;;4.03;3.63;;;21.10;1.00;;;;;;6244319;23;20182;-85
2022/08/24 04:03:39;;;;;;;5.10;3.30;;;21.10;99.90;;;;;;6244180;22;20616;-85
2022/08/24 04:06:05;;;;;;;3.27;2.93;;;21.10;99.90;;;;;;6244312;23;20372;-84
2022/08/24 04:08:31;;;;;;;5.97;3.60;;;21.10;99.90;;;;;;6245440;23;20419;-85
2022/08/24 04:10:57;;;;;;;6.60;3.20;;;21.10;99.90;;;;;;6247584;23;20386;-85
2022/08/24 04:13:24;;;;;;;4.57;3.47;;;21.10;99.90;;;;;;6247642;22;20172;-84
2022/08/24 04:15:51;;;;;;;4.13;2.80;;;21.00;99.90;;;;;;6249593;23;20153;-85
2022/08/24 04:18:20;;;;;;;3.90;3.37;;;21.00;99.90;;;;;;6247493;23;20379;-84
2022/08/24 04:20:45;;;;;;;4.80;3.50;;;21.00;99.90;;;;;;6219780;23;20395;-85
2022/08/24 04:23:12;;;;;;;4.70;3.80;;;20.90;99.90;;;;;;6246870;22;20404;-85
2022/08/24 04:25:45;;;;;;;4.40;3.70;;;20.90;99.90;;;;;;6245855;23;20156;-85
2022/08/24 04:28:13;;;;;;;9.10;4.40;;;20.80;99.90;;;;;;6245363;23;20466;-84
2022/08/24 04:30:41;;;;;;;5.73;4.13;;;20.80;99.90;;;;;;6220032;23;20387;-84
2022/08/24 04:33:11;;;;;;;4.73;4.20;;;20.70;1.00;;;;;;6248166;22;20510;-85
2022/08/24 04:35:39;;;;;;;5.80;3.70;;;20.80;1.00;;;;;;6245960;23;20714;-85
2022/08/24 04:38:05;;;;;;;4.37;3.80;;;20.70;1.00;;;;;;6246132;23;20677;-85
2022/08/24 04:40:31;;;;;;;6.53;4.97;;;20.70;1.00;;;;;;6246193;23;20703;-85
2022/08/24 04:42:57;;;;;;;7.10;5.10;;;20.70;1.00;;;;;;6246675;22;20402;-85
2022/08/24 04:45:24;;;;;;;8.13;5.07;;;20.80;1.00;;;;;;6246309;23;20211;-85
2022/08/24 04:47:52;;;;;;;11.27;4.47;;;20.80;1.00;;;;;;6222635;23;20423;-85
2022/08/24 04:50:17;;;;;;;7.40;5.03;;;20.80;1.00;;;;;;6251258;23;20386;-85
2022/08/24 04:52:43;;;;;;;7.70;5.27;;;20.90;1.00;;;;;;6248051;22;20481;-85
2022/08/24 04:55:09;;;;;;;5.67;5.17;;;20.90;1.00;;;;;;6246615;23;20160;-85
2022/08/24 04:57:35;;;;;;;7.50;4.97;;;20.90;1.00;;;;;;6246011;23;20731;-85
2022/08/24 05:00:02;;;;;;;6.77;5.77;;;21.00;1.00;;;;;;6247148;23;20168;-85
2022/08/24 05:02:27;;;;;;;7.63;5.30;;;21.00;1.00;;;;;;6246633;22;20548;-85
2022/08/24 05:04:56;;;;;;;8.10;5.50;;;21.10;1.00;;;;;;6246581;23;20437;-85
2022/08/24 05:07:22;;;;;;;7.17;5.87;;;21.10;1.00;;;;;;6245922;23;20898;-85
2022/08/24 05:09:48;;;;;;;6.23;5.63;;;21.20;1.00;;;;;;6246233;23;20463;-85
2022/08/24 05:12:14;;;;;;;6.63;5.60;;;21.30;1.00;;;;;;6251617;22;20169;-85
2022/08/24 05:14:40;;;;;;;8.70;5.60;;;21.40;1.00;;;;;;6251105;23;20407;-85
2022/08/24 05:17:05;;;;;;;7.60;6.73;;;21.50;1.00;;;;;;6250812;23;20383;-84
2022/08/24 05:19:31;;;;;;;18.97;5.70;;;21.50;1.00;;;;;;6250389;23;20214;-85
2022/08/24 05:21:57;;;;;;;6.77;5.90;;;21.70;1.00;;;;;;6251792;22;20169;-85
2022/08/24 05:24:22;;;;;;;8.27;7.57;;;21.80;99.90;;;;;;6223576;23;20543;-84
2022/08/24 05:26:51;;;;;;;10.20;6.60;;;21.90;99.90;;;;;;6251182;23;20158;-85
2022/08/24 05:29:17;;;;;;;8.53;7.20;;;22.10;99.90;;;;;;6250965;23;20153;-84
2022/08/24 05:31:45;;;;;;;8.60;6.23;;;24.20;1.00;;;;;;6249152;23;20380;-84
2022/08/24 05:34:10;;;;;;;7.07;4.80;;;27.20;99.90;;;;;;6247178;22;20422;-85
2022/08/24 05:36:38;;;;;;;6.27;5.07;;;29.70;99.90;;;;;;6246352;23;20696;-85
2022/08/24 05:39:08;;;;;;;7.80;4.90;;;31.80;99.90;;;;;;6218540;23;20244;-85
2022/08/24 05:41:33;;;;;;;7.00;4.67;;;33.70;99.90;;;;;;6245531;23;20372;-85
2022/08/24 05:43:59;;;;;;;7.60;4.50;;;35.30;99.90;;;;;;6245980;22;20482;-85
2022/08/24 05:46:26;;;;;;;6.40;4.70;;;36.60;99.90;;;;;;6244547;23;20211;-85
2022/08/24 05:48:55;;;;;;;4.40;4.00;;;37.90;99.90;;;;;;6217848;23;20473;-85
2022/08/24 05:51:21;;;;;;;4.87;3.20;;;39.20;99.90;;;;;;6245267;23;20460;-86
2022/08/24 05:53:46;;;;;;;5.20;3.70;;;40.70;99.90;;;;;;6218088;23;20400;-85
2022/08/24 05:56:14;;;;;;;7.43;3.53;;;41.90;99.90;;;;;;6243539;23;20145;-86
2022/08/24 05:58:40;;;;;;;4.73;3.20;;;43.00;97.70;;;;;;6243845;23;20177;-86
2022/08/24 06:01:11;;;;;;;12.17;4.03;;;44.10;92.40;;;;;;6218206;23;20846;-86
2022/08/24 06:03:40;;;;;;;6.10;4.07;;;45.20;84.50;;;;;;6244926;22;20172;-86
2022/08/24 06:06:07;;;;;;;7.20;4.97;;;46.20;73.90;;;;;;6244827;23;20391;-85
2022/08/24 06:08:39;;;;;;;8.60;6.07;;;47.10;62.70;;;;;;6244265;23;20545;-86
2022/08/24 06:11:05;;;;;;;5.83;4.50;;;48.00;54.90;;;;;;6244819;23;20719;-87
2022/08/24 06:13:32;;;;;;;6.07;5.33;;;48.70;48.10;;;;;;6243905;22;20391;-87
2022/08/24 06:16:12;;;;;;;7.13;5.60;;;49.30;43.20;;;;;;6244260;23;20383;-87
2022/08/24 06:18:38;;;;;;;7.90;5.57;;;50.10;37.10;;;;;;6243906;23;20202;-87
2022/08/24 06:21:06;;;;;;;6.10;5.03;;;50.60;32.00;;;;;;6218141;23;20206;-87
2022/08/24 06:23:32;;;;;;;13.00;4.83;;;51.30;28.30;;;;;;6243983;22;20243;-87
2022/08/24 06:28:42;;;;;;;15.25;4.20;;;52.30;22.70;;;;;;6244429;23;20175;-87
2022/08/24 06:31:08;;;;;;;10.20;4.15;;;52.10;18.30;;;;;;6243886;23;20153;-87
2022/08/24 06:33:34;;;;;;;8.55;4.47;;;52.60;16.80;;;;;;6213996;22;20197;-81
2022/08/24 06:35:59;;;;;;;7.73;3.63;;;52.80;14.30;;;;;;6214307;23;20141;-85
2022/08/24 06:38:25;;;;;;;11.37;4.30;;;52.90;12.30;;;;;;6212854;23;20188;-84
2022/08/24 06:40:51;;;;;;;9.63;3.50;;;53.00;10.30;;;;;;6187485;23;20608;-85
2022/08/24 06:43:16;;;;;;;9.17;4.57;;;52.90;8.30;;;;;;6210866;23;20196;-85
2022/08/24 06:45:43;;;;;;;7.30;4.53;;;53.00;7.30;;;;;;6185867;23;20160;-87
2022/08/24 06:48:09;;;;;;;7.40;4.10;;;53.30;6.20;;;;;;6212536;23;20149;-86
2022/08/24 06:50:34;;;;;;;9.27;5.80;;;53.70;5.70;;;;;;6185280;23;20180;-86
2022/08/24 06:53:00;;;;;;;10.53;5.87;;;53.80;4.20;;;;;;6212990;23;20199;-87
2022/08/24 06:55:27;;;;;;;7.90;5.40;;;53.50;13.10;;;;;;6185407;23;20614;-89
2022/08/24 06:57:53;;;;;;;10.50;6.03;;;53.40;2.00;;;;;;6184094;23;20235;-86
2022/08/24 07:00:19;;;;;;;12.00;7.87;;;53.30;1.00;;;;;;6212313;23;20562;-86
2022/08/24 07:02:44;;;;;;;13.90;11.63;;;53.40;1.10;;;;;;6185275;23;20208;-86
2022/08/24 07:05:10;;;;;;;21.17;12.90;;;53.00;1.00;;;;;;6184813;23;20157;-86
2022/08/24 07:07:36;;;;;;;10.63;8.13;;;52.70;1.00;;;;;;6211981;23;20223;-86
2022/08/24 07:10:02;;;;;;;9.50;7.33;;;53.10;8.70;;;;;;6212389;23;20439;-86
2022/08/24 07:12:28;;;;;;;8.97;6.60;;;53.40;1.00;;;;;;6185292;23;20160;-87
2022/08/24 07:14:54;;;;;;;7.70;6.37;;;53.40;1.00;;;;;;6212168;23;20615;-86
2022/08/24 07:17:20;;;;;;;6.87;6.30;;;53.40;1.00;;;;;;6210953;23;20181;-86
2022/08/24 07:19:45;;;;;;;9.13;6.90;;;53.60;1.00;;;;;;6210772;23;20589;-86
2022/08/24 07:22:12;;;;;;;6.93;6.33;;;52.80;1.00;;;;;;6211742;23;20669;-86
2022/08/24 07:24:38;;;;;;;9.27;7.20;;;52.50;1.00;;;;;;6185393;23;20200;-86
2022/08/24 07:27:04;;;;;;;10.43;6.63;;;52.80;1.00;;;;;;6184462;23;20156;-87
2022/08/24 07:29:30;;;;;;;13.03;6.60;;;52.70;1.00;;;;;;6211399;23;20156;-89
2022/08/24 07:31:57;;;;;;;9.77;6.30;;;53.40;1.00;;;;;;6210785;23;20240;-88
2022/08/24 07:34:22;;;;;;;11.80;5.90;;;53.70;1.00;;;;;;6185184;23;20196;-85
2022/08/24 07:36:49;;;;;;;17.03;6.50;;;53.80;1.00;;;;;;6210770;23;20157;-86
2022/08/24 07:39:15;;;;;;;10.43;5.43;;;54.30;1.00;;;;;;6185986;23;20160;-87
2022/08/24 07:41:43;;;;;;;12.65;6.10;;;54.60;1.00;;;;;;6211296;23;20224;-88
2022/08/24 07:44:11;;;;;;;13.52;5.70;;;54.70;1.00;;;;;;6187325;23;20173;-87
2022/08/24 07:46:38;;;;;;;10.07;5.93;;;55.00;1.00;;;;;;6186031;23;20157;-86
2022/08/24 07:49:05;;;;;;;11.45;5.53;;;54.70;1.00;;;;;;6188100;23;20153;-86
2022/08/24 07:51:32;;;;;;;17.05;5.85;;;54.60;1.00;;;;;;6211143;23;20232;-86
2022/08/24 07:53:57;;;;;;;13.93;5.30;;;54.40;1.00;;;;;;6187101;23;20230;-86
2022/08/24 07:56:23;;;;;;;11.52;5.55;;;54.10;1.00;;;;;;6185842;23;20534;-85
2022/08/24 07:58:49;;;;;;;14.75;5.25;;;54.50;1.00;;;;;;6186941;23;20192;-85
2022/08/24 08:01:16;;;;;;;17.27;4.95;;;54.40;1.00;;;;;;6186557;23;20193;-86
2022/08/24 08:03:42;;;;;;;12.90;4.60;;;54.70;1.00;;;;;;6186224;23;20252;-86
2022/08/24 08:06:08;;;;;;;19.45;4.70;;;54.80;1.00;;;;;;6186367;23;20207;-86
2022/08/24 08:08:36;;;;;;;22.73;5.50;;;54.90;1.00;;;;;;6212607;23;20161;-86
2022/08/24 08:11:02;;;;;;;23.20;5.22;;;55.30;1.00;;;;;;6213521;23;20157;-86
2022/08/24 08:13:29;;;;;;;19.02;5.85;;;55.40;1.00;;;;;;6214071;23;20251;-86
2022/08/24 08:15:56;;;;;;;24.58;4.78;;;55.80;1.00;;;;;;6213866;23;20644;-86
2022/08/24 08:18:22;;;;;;;18.98;4.70;;;56.40;1.00;;;;;;6186762;23;20180;-86
2022/08/24 08:20:47;;;;;;;21.02;4.97;;;57.10;1.00;;;;;;6213236;23;20188;-88
2022/08/24 08:25:58;;;;;;;20.05;5.35;;;56.70;1.00;;;;;;6214163;23;20186;-86
2022/08/24 08:28:25;;;;;;;30.48;5.70;;;57.30;1.00;;;;;;6186717;23;20161;-88
2022/08/24 08:30:52;;;;;;;27.52;5.10;;;56.80;1.00;;;;;;6213557;23;20153;-87
2022/08/24 08:33:17;;;;;;;27.50;5.35;;;56.40;1.00;;;;;;6186661;23;20578;-86
2022/08/24 08:35:43;;;;;;;34.23;4.90;;;55.10;1.00;;;;;;6188242;23;20186;-86
2022/08/24 08:38:09;;;;;;;23.43;5.30;;;54.30;1.00;;;;;;6187097;23;20701;-87
2022/08/24 08:40:54;;;;;;;18.30;4.87;;;54.20;1.00;;;;;;6183180;23;20164;-88
2022/08/24 08:43:41;;;;;;;17.80;4.27;;;54.80;1.00;;;;;;6214679;23;20172;-86
2022/08/24 08:46:52;;;;;;;17.40;4.65;;;54.80;1.00;;;;;;6214246;23;20572;-86
2022/08/24 08:49:32;;;;;;;17.52;4.57;;;55.50;1.00;;;;;;6193113;23;20607;-86
2022/08/24 08:52:10;;;;;;;23.85;5.13;;;56.10;1.00;;;;;;6188375;23;20146;-87
2022/08/24 08:54:41;;;;;;;21.85;4.82;;;56.10;1.00;;;;;;6188598;23;20176;-87
2022/08/24 08:57:25;;;;;;;15.25;4.50;;;55.80;1.00;;;;;;6186575;23;20268;-86
2022/08/24 09:00:21;;;;;;;20.20;4.40;;;55.30;1.00;;;;;;6188343;23;20624;-85
2022/08/24 09:03:12;;;;;;;21.13;4.80;;;54.10;1.00;;;;;;6186509;23;20188;-86
2022/08/24 09:05:50;;;;;;;16.90;4.10;;;53.40;1.00;;;;;;6214831;23;20137;-85
2022/08/24 09:08:37;;;;;;;22.73;4.23;;;53.20;1.00;;;;;;6214263;23;20149;-86
2022/08/24 09:11:31;;;;;;;18.00;4.27;;;52.50;1.00;;;;;;6214536;23;20379;-87
2022/08/24 09:14:30;;;;;;;16.73;3.80;;;52.40;1.00;;;;;;6214640;23;20522;-86
2022/08/24 09:17:15;;;;;;;12.43;3.07;;;52.40;1.00;;;;;;6214251;23;20433;-86
2022/08/24 09:20:07;;;;;;;18.67;2.90;;;51.70;1.00;;;;;;6214621;23;20361;-85
2022/08/24 09:22:39;;;;;;;16.87;4.27;;;49.80;1.00;;;;;;6188453;23;20397;-85
2022/08/24 09:25:17;;;;;;;7.53;3.20;;;49.10;1.00;;;;;;6186787;23;20381;-86
2022/08/24 09:28:11;;;;;;;9.93;3.20;;;48.50;1.00;;;;;;6212434;23;20392;-85
2022/08/24 09:31:03;;;;;;;13.27;2.50;;;47.90;1.00;;;;;;6187841;23;20729;-86
2022/08/24 09:33:48;;;;;;;10.50;2.97;;;47.50;1.00;;;;;;6214663;23;20413;-86
2022/08/24 09:36:37;;;;;;;14.23;3.20;;;47.90;1.00;;;;;;6187410;23;20388;-86
2022/08/24 09:39:26;;;;;;;13.77;2.93;;;48.00;1.00;;;;;;6188252;23;20421;-85
2022/08/24 09:42:15;;;;;;;10.70;3.13;;;47.80;1.00;;;;;;6215120;23;20891;-85
2022/08/24 09:45:12;;;;;;;10.10;3.40;;;48.10;1.00;;;;;;6188313;23;20369;-86
2022/08/24 09:47:41;;;;;;;9.80;2.70;;;48.50;1.00;;;;;;6187544;23;20379;-86
2022/08/24 09:50:30;;;;;;;12.00;3.03;;;48.80;1.00;;;;;;6188570;23;20403;-85
2022/08/24 09:53:13;;;;;;;10.60;2.83;;;49.20;1.00;;;;;;6192876;23;20404;-86
2022/08/24 09:55:42;;;;;;;11.07;3.60;;;49.90;1.00;;;;;;6193699;23;20368;-86
2022/08/24 09:58:26;;;;;;;12.60;2.70;;;50.00;1.00;;;;;;6186824;23;20423;-85
2022/08/24 10:01:21;;;;;;;10.83;2.73;;;49.50;1.00;;;;;;6214652;23;20372;-85
2022/08/24 10:03:52;;;;;;;10.43;3.00;;;49.10;1.00;;;;;;6188051;23;20986;-85
2022/08/24 10:06:42;;;;;;;10.77;2.30;;;48.50;1.00;;;;;;6212812;23;20361;-85
2022/08/24 10:09:36;;;;;;;4.60;2.00;;;47.90;1.00;;;;;;6187119;23;20467;-85
2022/08/24 10:12:32;;;;;;;6.87;2.57;;;47.70;1.00;;;;;;6214956;23;20358;-85
2022/08/24 10:15:16;;;;;;;4.40;1.97;;;47.90;1.00;;;;;;6187069;23;20765;-85
2022/08/24 10:18:19;;;;;;;12.13;2.30;;;48.80;1.00;;;;;;6185995;23;20415;-85
2022/08/24 10:20:49;;;;;;;7.90;1.87;;;49.20;1.00;;;;;;6214789;23;20368;-85
2022/08/24 10:23:44;;;;;;;2.80;1.80;;;50.10;1.00;;;;;;6212159;23;20479;-86
2022/08/24 10:26:24;;;;;;;2.70;1.30;;;51.00;1.00;;;;;;6212024;23;20447;-87
2022/08/24 10:29:14;;;;;;;4.30;1.80;;;51.80;1.00;;;;;;6187310;23;20395;-87
2022/08/24 10:31:47;;;;;;;5.50;1.80;;;52.60;1.00;;;;;;6186750;23;20200;-86
2022/08/24 10:34:27;;;;;;;3.43;1.37;;;52.70;1.00;;;;;;6186437;23;20570;-86
2022/08/24 10:37:08;;;;;;;5.50;1.90;;;53.00;1.00;;;;;;6211493;23;20141;-86
2022/08/24 10:40:07;;;;;;;3.73;1.53;;;52.60;1.00;;;;;;6211680;23;20138;-86
2022/08/24 10:46:17;;;;;;;3.63;1.90;;;51.70;1.00;;;;;;6212364;23;20226;-86
2022/08/24 10:48:58;;;;;;;4.70;1.50;;;50.70;1.00;;;;;;6185447;23;20878;-86
2022/08/24 10:51:40;;;;;;;4.20;1.53;;;50.10;1.00;;;;;;6211955;23;20364;-87
2022/08/24 10:54:10;;;;;;;7.60;2.00;;;50.50;1.00;;;;;;6185096;23;20442;-86
2022/08/24 10:56:47;;;;;;;3.50;1.67;;;50.40;1.00;;;;;;6211574;23;20375;-86
2022/08/24 10:59:21;;;;;;;8.10;2.23;;;50.00;1.00;;;;;;6185926;23;20380;-85
2022/08/24 11:02:06;;;;;;;2.73;1.60;;;50.20;1.00;;;;;;6184549;23;20369;-86
2022/08/24 11:04:34;;;;;;;2.90;2.10;;;50.60;1.00;;;;;;6212438;23;20391;-86
2022/08/24 11:07:16;;;;;;;3.77;1.63;;;51.00;1.00;;;;;;6211610;23;20159;-86
2022/08/24 11:09:55;;;;;;;4.03;1.80;;;51.50;1.00;;;;;;6187400;23;20225;-86
2022/08/24 11:12:25;;;;;;;4.30;1.87;;;51.90;1.00;;;;;;6188617;23;20148;-86
2022/08/24 11:14:52;;;;;;;5.00;2.13;;;52.00;1.00;;;;;;6214598;23;20187;-86
2022/08/24 11:17:21;;;;;;;6.63;1.90;;;52.00;1.00;;;;;;6187808;23;20180;-87
2022/08/24 11:19:48;;;;;;;6.83;1.77;;;51.70;1.00;;;;;;6187534;23;20185;-86
2022/08/24 11:22:54;;;;;;;4.00;2.17;;;51.70;1.00;;;;;;6187239;23;20157;-86
2022/08/24 11:25:26;;;;;;;4.07;1.47;;;51.50;1.00;;;;;;6214440;23;20208;-86
2022/08/24 11:28:01;;;;;;;5.57;1.87;;;51.70;1.00;;;;;;6214194;23;20173;-87
2022/08/24 11:30:28;;;;;;;7.07;1.70;;;51.80;1.00;;;;;;6187439;23;20149;-87
2022/08/24 11:33:01;;;;;;;2.63;1.70;;;51.30;1.00;;;;;;6214620;23;20752;-86
2022/08/24 11:35:33;;;;;;;6.10;1.77;;;50.80;1.00;;;;;;6214875;23;20169;-87
2022/08/24 11:38:13;;;;;;;5.63;1.70;;;50.70;1.00;;;;;;6186758;23;20187;-87
2022/08/24 11:40:42;;;;;;;3.97;1.73;;;51.10;1.00;;;;;;6214215;23;20356;-87
2022/08/24 11:43:35;;;;;;;3.73;1.50;;;51.40;1.00;;;;;;6214261;23;20199;-87
2022/08/24 11:46:22;;;;;;;4.47;1.70;;;51.20;1.00;;;;;;6214472;23;20480;-87
2022/08/24 11:49:00;;;;;;;4.33;1.80;;;51.20;1.00;;;;;;6213945;23;20161;-86
2022/08/24 11:51:50;;;;;;;6.17;1.80;;;50.50;1.00;;;;;;6187330;23;20470;-86
2022/08/24 11:54:25;;;;;;;6.60;1.70;;;49.30;1.00;;;;;;6214085;23;20479;-85
2022/08/24 11:57:08;;;;;;;6.37;2.07;;;47.60;1.00;;;;;;6212958;23;20368;-85
2022/08/24 12:00:00;;;;;;;4.57;1.90;;;46.30;1.00;;;;;;6186354;23;20476;-86
2022/08/24 12:02:38;;;;;;;4.93;2.00;;;45.60;1.00;;;;;;6212875;23;20363;-86
2022/08/24 12:05:06;;;;;;;5.87;2.10;;;45.60;1.00;;;;;;6185765;23;20369;-86
2022/08/24 12:07:52;;;;;;;4.80;2.00;;;46.30;1.00;;;;;;6215037;23;20909;-85
2022/08/24 12:10:56;;;;;;;5.60;1.90;;;46.80;1.00;;;;;;6219487;23;20361;-85
2022/08/24 12:13:41;;;;;;;5.30;1.90;;;47.10;1.00;;;;;;6126572;23;20406;-86
2022/08/24 12:16:25;;;;;;;3.97;1.90;;;47.80;1.00;;;;;;6211746;23;20519;-86
2022/08/24 12:18:57;;;;;;;3.90;1.50;;;48.40;1.00;;;;;;6191238;23;20465;-86
2022/08/24 12:21:27;;;;;;;3.30;1.90;;;48.10;1.00;;;;;;6215668;23;20353;-85
2022/08/24 12:24:04;;;;;;;7.23;1.90;;;48.00;1.00;;;;;;6218487;23;20408;-85
2022/08/24 12:26:49;;;;;;;5.63;2.00;;;48.20;1.00;;;;;;6187815;23;20731;-86
2022/08/24 12:29:48;;;;;;;4.10;1.80;;;48.80;1.00;;;;;;6189529;23;20395;-85
2022/08/24 12:32:20;;;;;;;5.90;1.83;;;49.20;1.00;;;;;;6190296;23;20369;-85
2022/08/24 12:35:04;;;;;;;4.13;1.50;;;49.40;1.00;;;;;;6217470;23;20397;-85
2022/08/24 12:37:42;;;;;;;3.57;1.77;;;49.20;1.00;;;;;;6188914;23;20420;-85
2022/08/24 12:40:22;;;;;;;2.70;1.60;;;48.60;1.00;;;;;;6215467;23;20360;-85
2022/08/24 12:42:54;;;;;;;2.77;1.40;;;48.40;1.00;;;;;;6215461;23;20406;-85
2022/08/24 12:45:22;;;;;;;6.00;1.87;;;48.50;1.00;;;;;;6215425;23;20375;-84
2022/08/24 12:48:01;;;;;;;10.47;2.03;;;48.40;1.00;;;;;;6187297;23;20439;-85
2022/08/24 12:50:35;;;;;;;9.60;2.00;;;47.90;1.00;;;;;;6187733;23;20377;-85
2022/08/24 12:53:29;;;;;;;4.53;1.93;;;47.10;1.00;;;;;;6190003;23;20751;-84
2022/08/24 12:56:32;;;;;;;6.00;2.10;;;46.70;1.00;;;;;;6191193;23;20388;-84
2022/08/24 12:59:24;;;;;;;7.37;2.03;;;46.50;1.00;;;;;;6134815;23;20952;-84
2022/08/24 13:02:05;;;;;;;3.70;2.20;;;46.10;1.00;;;;;;6189952;23;20388;-85
2022/08/24 13:04:52;;;;;;;3.63;2.07;;;46.00;1.00;;;;;;6188918;23;20480;-87
2022/08/24 13:07:18;;;;;;;5.93;2.30;;;46.00;1.00;;;;;;6189022;23;20425;-84
2022/08/24 13:09:51;;;;;;;3.27;2.10;;;46.20;1.00;;;;;;6190508;23;20859;-84
2022/08/24 13:12:44;;;;;;;4.90;2.23;;;46.30;1.00;;;;;;6217199;23;20228;-84
2022/08/24 13:15:22;;;;;;;6.27;2.30;;;46.50;1.00;;;;;;6190650;23;20396;-84
2022/08/24 13:18:06;;;;;;;3.27;1.80;;;46.50;1.00;;;;;;6190075;23;20981;-85
2022/08/24 13:20:34;;;;;;;5.93;2.13;;;46.50;1.00;;;;;;6190351;23;20475;-85
2022/08/24 13:23:12;;;;;;;7.97;2.80;;;46.40;1.00;;;;;;6216481;23;20417;-84
2022/08/24 13:25:48;;;;;;;4.03;2.57;;;45.90;1.00;;;;;;6190100;23;20422;-88